Relevés horaires Koksijde (Belgique)


Relevés horaires à Koksijde - Lundi 29 Mai 2023
Heure UTC1 Température [°C] Vent [km/h] Hum. [%] Pres.4 [hPa] Visi. [Km] Nébu. [octa] Préc.5 [mm] Cond.
2m. Res. Ros. Dir.2 Vit. Moy. Raf.3
23:00 11.5 10.3 7.9 NE 11.1 -- 18.5 79 1026.5(0.3/3h) 19 -- -- --
22:00 11.5 10 8.5 NE 13.0 -- 22.2 82 1026.7(0.7/3h) 17 -- -- --
21:00 11.6 9.7 8.5 NE 16.7 -- 27.8 81 1026.5(0.5/3h) 16 -- -- --
20:00 11.7 9.8 8.6 NNE 16.7 -- 25.9 81 1026.2(0.2/3h) 15 -- -- --
19:00 12.2 10.5 8.6 NNE 16.7 -- 27.8 79 1026(0.0/3h) 15 -- -- --
18:00 13.1 11.6 9.0 NNE 16.7 -- 27.8 76 1026(0.0/3h) 14 -- -- --
17:00 13.8 12.3 9.4 NNE 18.5 -- 27.8 75 1026(-0.2/3h) 15 -- -- --
16:00 13.7 12 9.2 NNE 20.4 -- 25.9 74 1026(0.1/3h) 19 -- -- --
15:00 14.3 12.9 9.0 NNE 18.5 -- 27.8 70 1026(-0.2/3h) 13 -- -- --
14:00 14.4 12.9 8.6 NNE 20.4 -- 27.8 68 1026.2(0.0/3h) 19 -- -- --
13:00 14.8 13.5 8.4 N 18.5 -- 25.9 65 1026(-0.2/3h) 19 -- -- --
12:00 14.4 13 7.9 NNE 18.5 -- 27.8 65 1026.2(0.2/3h) 17 -- -- --
11:00 14.5 13.2 8.0 NNE 18.5 -- 25.9 65 1026.2(0.7/3h) 20 -- -- --
10:00 13.8 12.3 7.3 NE 18.5 -- 25.9 65 1026.4(0.8/3h) 13 -- -- --
09:00 13.8 12.4 8.2 NE 16.7 -- 25.9 69 1025.9(0.8/3h) 19 -- -- --
08:00 13.2 11.7 8.2 NNE 16.7 -- 22.2 72 1025.5(1.0/3h) 19 -- -- --
07:00 13.1 11.8 8.6 NE 14.8 -- 20.4 74 1025.5(1.4/3h) 17 -- -- --
06:00 12.1 10.7 8.1 NE 13.0 -- 25.9 77 1025(1.0/3h) 17 -- -- --
05:00 11.6 10.1 8.2 NE 13.0 -- 22.2 80 1024.5(0.4/3h) 17 -- -- --
04:00 11.3 9.5 8.6 NE 14.8 -- 24.1 83 1024(0.1/3h) 15 -- -- --
03:00 11.6 9.9 9.0 NNE 14.8 -- 25.9 84 1024(0.1/3h) 17 -- -- --
02:00 11.8 10.2 9.1 NE 14.8 -- 24.1 84 1024(0.5/3h) 8 -- -- --
01:00 12.1 10.7 9.2 NE 13.0 -- 25.9 82 1024(0.6/3h) 17 -- -- --
00:00 12.5 11.2 9.5 NNE 13.0 -- 27.8 82 1023.7(0.5/3h) 16 -- -- --

1 Coordinated Universal Time. Actuellement il est 12:00 locale et 10:00 UTC.

2 Le vent souffle depuis la direction indiquée vers la direction oposée.

3 Les rafales max. sont disponible 40 min après l'heure du relevé.

4 Pour les stations d'altitude (plus de 600m) le géopotentiel du niveau le plus proche de la pression obligatoire est indiqué.

5 Les stations disposant d'un diffuseur peuvent indiquer "trace". Cela signifie que des précipitations ont touchés le sol mais que la quantité est inférieure à 0.1 mm.

Récapitulatif de la journée
Température [°C] Vent [km/h] Ensoleillement4 [h] Precipitations totale5 [mm] Pression [Hpa]
Min1 Max.2 Moy.3 Max. Min Max.
11.3 15.1 0 27.8 0 h 0 min 0 1023.7 1026.7

1 Température minimale relevée entre 18:00 UTC la veille et 18:00 UTC le jour donné.

2 Température maximale relevée entre 06:00 UTC le jour donné et 06:00 UTC le lendemain.

3 Vent moyen de la journée basé sur les relevés horaires.

4 Ensoleillement en heures relevé entre 06:00 UTC la veille et 06:00 UTC le jour donné.

5 Précipitations totales tombées entre 06:00 UTC la jour donné et 06:00 UTC le lendemain.

Graphiques horaires